Overview Statistics Trail Chart Weather Telemetry Raw packets
 

This is the latest recevied telemetry packets stored in our database for station/object G1IVG-12. If no packets are shown the sender has not sent any telemetry packets the latest 10 day(s).

Telemetry packets is used to share measurements like repeteater parameters, battery voltage, radiation readings (or any other measurements).

<< 1 2 3 4 >>
Time Press* Temp.in* Hum* QNH* Temp.out*
1788609023 1015 hPa 28.6 C deg 32.7 % 1024.3 hPa 0 C deg
1788608173 1014.9 hPa 30.4 C deg 30.7 % 1024.1 hPa 0 C deg
1788607905 1014.8 hPa 30.9 C deg 30.4 % 1024.1 hPa 0 C deg
1788607399 1014.8 hPa 31.7 C deg 29.4 % 1024.3 hPa 0 C deg
1788607168 1014.8 hPa 32.4 C deg 29.4 % 1024 hPa 0 C deg
1788606792 1014.7 hPa 32.8 C deg 29.9 % 1022.6 hPa 0 C deg
1788605805 1014.8 hPa 32.6 C deg 30.3 % 1023.3 hPa 0 C deg
1788605408 1014.7 hPa 30.9 C deg 31.5 % 1024.3 hPa 0 C deg
1788604732 1014.7 hPa 30.9 C deg 34 % 1024.3 hPa 0 C deg
1788604591 1014.8 hPa 29.9 C deg 35.3 % 1024.4 hPa 0 C deg
1788604388 1014.7 hPa 29 C deg 37.3 % 1024.4 hPa 0 C deg
1788604218 1014.7 hPa 27.9 C deg 38.1 % 1024.6 hPa 0 C deg
1788603934 1014.7 hPa 26.8 C deg 38.5 % 1024.6 hPa 0 C deg
1788603703 1014.8 hPa 26.7 C deg 38.3 % 1024.7 hPa 0 C deg
1788602798 1014.7 hPa 26.1 C deg 39.1 % 1024.3 hPa 0 C deg
1788602143 1014.6 hPa 26 C deg 39.3 % 1024.2 hPa 0 C deg
1788602065 1014.6 hPa 26 C deg 39.2 % 1024.5 hPa 0 C deg
1788601949 1014.6 hPa 26.1 C deg 39.2 % 1024.4 hPa 0 C deg
1788601408 1014.4 hPa 25.9 C deg 39.2 % 1024 hPa 0 C deg
1788600983 1014.4 hPa 25.8 C deg 39 % 1024.2 hPa 0 C deg
1788600637 1014.3 hPa 25.9 C deg 38.7 % 1023.6 hPa 0 C deg
1788600524 1014.3 hPa 25.9 C deg 38.6 % 1023.7 hPa 0 C deg
1788600409 1014.3 hPa 26 C deg 38.5 % 1023.5 hPa 0 C deg
1788599442 1014.2 hPa 26 C deg 38.4 % 1024.2 hPa 0 C deg
1788598978 1014.2 hPa 26 C deg 38.4 % 1023.7 hPa 0 C deg
*Used Equation Coefficients:
Press: 0, 1, 0
Temp.in: 0, 1, 0
Hum: 0, 1, 0
QNH: 0, 1, 0
Temp.out: 0, 1, 0

  • The parameter names for the analog channels will be Value1, Value2, Value3 (up to Value5) if station has not sent a PARAM-packet that specifies the parameter names for each analog channel.
  • Each analog value is a decimal number between 000 and 255 (according to APRS specifications). The receiver use the telemetry equation coefficientsto to restore the original sensor values. If no EQNS-packet with equation coefficients is sent we will show the values as is (this corresponds to the equation coefficients a=0, b=1 and c=0).
    The sent equation coefficients is used in the equation: a * value2 + b * value + c.
  • The units for the analog values will not be shown if station has not sent a UNIT-packet specifying what unit's to use.
  • The parameter names for the digital bits will be Bit1, Bit2, Bit3 (up to Bit8) if station has not sent a PARAM-packet that specifies the parameter names for each digital bit.
  • All bit labels will be named "On" if station has not sent a UNIT-packet that specifies the label of each bit.
  • A bit is considered to be On when the bit is 1 if station has not sent a BITS-packet that specifies another "Bit sense" (a BITS-packet specify the state of the bits that match the BIT labels)